createdAt,value
2023-01-30T00:01:56.297Z,5.50
2023-01-30T00:04:24.265Z,5.77
2023-01-30T00:06:52.243Z,5.50
2023-01-30T00:09:20.197Z,6.00
2023-01-30T00:11:48.211Z,5.47
2023-01-30T00:14:17.756Z,6.00
2023-01-30T00:16:45.762Z,6.10
2023-01-30T00:19:13.758Z,5.40
2023-01-30T00:21:41.735Z,5.57
2023-01-30T00:24:10.009Z,5.20
2023-01-30T00:26:38.154Z,5.90
2023-01-30T00:29:06.202Z,6.00
2023-01-30T00:31:35.625Z,5.40
2023-01-30T00:34:03.696Z,6.03
2023-01-30T00:36:31.641Z,5.30
2023-01-30T00:38:59.693Z,6.27
2023-01-30T00:41:48.495Z,5.60
2023-01-30T00:44:34.178Z,5.83
2023-01-30T00:47:07.290Z,5.47
2023-01-30T00:49:35.219Z,6.00
2023-01-30T00:52:03.489Z,6.17
2023-01-30T00:54:31.746Z,6.33
2023-01-30T00:56:59.813Z,6.17
2023-01-30T00:59:27.785Z,6.33
2023-01-30T01:01:55.838Z,5.87
2023-01-30T01:04:25.279Z,6.77
2023-01-30T01:06:53.273Z,7.87
2023-01-30T01:09:21.224Z,6.27
2023-01-30T01:11:49.207Z,6.17
2023-01-30T01:14:17.193Z,5.83
2023-01-30T01:16:45.301Z,6.77
2023-01-30T01:19:13.563Z,6.37
2023-01-30T01:21:42.924Z,7.03
2023-01-30T01:24:13.199Z,6.67
2023-01-30T01:26:41.839Z,6.53
2023-01-30T01:29:12.650Z,6.77
2023-01-30T01:31:40.679Z,6.90
2023-01-30T01:34:08.641Z,6.17
2023-01-30T01:36:52.714Z,6.53
2023-01-30T01:39:23.019Z,6.37
2023-01-30T01:41:49.942Z,6.27
2023-01-30T01:44:18.354Z,6.30
2023-01-30T01:46:47.594Z,6.60
2023-01-30T01:49:16.898Z,6.73
2023-01-30T01:51:48.400Z,5.67
2023-01-30T01:54:19.361Z,6.13
2023-01-30T01:56:50.160Z,5.83
2023-01-30T01:59:20.555Z,5.57
2023-01-30T02:01:49.250Z,5.60
2023-01-30T02:04:38.240Z,5.43
2023-01-30T02:07:06.297Z,4.53
2023-01-30T02:09:34.303Z,4.60
2023-01-30T02:12:04.929Z,4.63
2023-01-30T02:14:33.324Z,4.27
2023-01-30T02:17:01.259Z,4.30
2023-01-30T02:19:34.007Z,4.43
2023-01-30T02:22:15.427Z,4.57
2023-01-30T02:24:55.689Z,4.83
2023-01-30T02:27:32.797Z,4.97
2023-01-30T02:30:10.312Z,4.70
2023-01-30T02:32:42.649Z,4.70
2023-01-30T02:35:16.871Z,4.80
2023-01-30T02:37:51.171Z,4.57
2023-01-30T02:40:32.912Z,4.80
2023-01-30T02:43:04.127Z,4.70
2023-01-30T02:45:35.656Z,5.20
2023-01-30T02:48:06.464Z,4.43
2023-01-30T02:50:36.059Z,5.47
2023-01-30T02:53:04.123Z,4.63
2023-01-30T02:55:32.177Z,5.00
2023-01-30T02:58:00.368Z,4.47
2023-01-30T03:00:35.654Z,4.53
2023-01-30T03:03:18.613Z,4.23
2023-01-30T03:05:59.243Z,3.80
2023-01-30T03:08:33.225Z,4.87
2023-01-30T03:11:02.273Z,5.03
2023-01-30T03:13:34.703Z,4.07
2023-01-30T03:16:05.109Z,4.60
2023-01-30T03:18:33.112Z,5.07
2023-01-30T03:21:07.059Z,4.97
2023-01-30T03:23:35.036Z,5.00
2023-01-30T03:26:05.167Z,4.77
2023-01-30T03:28:33.526Z,4.67
2023-01-30T03:31:01.583Z,4.50
2023-01-30T03:33:29.528Z,4.53
2023-01-30T03:35:57.629Z,4.67
2023-01-30T03:38:27.070Z,4.37
2023-01-30T03:40:55.086Z,4.77
2023-01-30T03:43:23.082Z,4.60
2023-01-30T03:45:51.122Z,4.80
2023-01-30T03:48:19.164Z,5.00
2023-01-30T03:50:47.114Z,4.53
2023-01-30T03:53:15.175Z,4.20
2023-01-30T03:55:45.109Z,3.67
2023-01-30T03:58:13.104Z,4.13
2023-01-30T04:00:43.637Z,4.03
2023-01-30T04:03:11.699Z,5.17
2023-01-30T04:05:41.484Z,3.63
2023-01-30T04:08:10.953Z,4.50
2023-01-30T04:10:38.951Z,4.00
2023-01-30T04:13:08.462Z,4.23
2023-01-30T04:15:36.544Z,3.97
2023-01-30T04:18:04.547Z,4.07
2023-01-30T04:20:32.533Z,3.87
2023-01-30T04:23:00.522Z,3.93
2023-01-30T04:25:28.549Z,3.70
2023-01-30T04:27:56.549Z,3.97
2023-01-30T04:30:25.951Z,4.10
2023-01-30T04:32:53.878Z,3.80
2023-01-30T04:35:21.840Z,4.17
2023-01-30T04:37:49.815Z,4.17
2023-01-30T04:40:18.065Z,3.57
2023-01-30T04:42:46.046Z,4.07
2023-01-30T04:45:13.989Z,4.23
2023-01-30T04:47:43.427Z,4.23
2023-01-30T04:50:12.120Z,3.83
2023-01-30T04:52:40.091Z,4.13
2023-01-30T04:55:08.298Z,3.97
2023-01-30T04:57:36.319Z,3.43
2023-01-30T05:00:04.546Z,4.30
2023-01-30T05:02:33.172Z,3.67
2023-01-30T05:05:02.737Z,4.30
2023-01-30T05:07:30.683Z,3.43
2023-01-30T05:09:58.601Z,3.27
2023-01-30T05:12:26.579Z,3.83
2023-01-30T05:14:54.540Z,4.00
2023-01-30T05:17:22.560Z,4.30
2023-01-30T05:19:50.594Z,3.70
2023-01-30T05:22:19.999Z,4.13
2023-01-30T05:24:48.745Z,3.80
2023-01-30T05:27:16.697Z,3.90
2023-01-30T05:29:44.668Z,4.00
2023-01-30T05:32:14.113Z,4.40
2023-01-30T05:34:42.260Z,4.93
2023-01-30T05:37:10.740Z,3.77
2023-01-30T05:39:40.178Z,4.70
2023-01-30T05:42:08.180Z,4.47
2023-01-30T05:44:36.209Z,4.33
2023-01-30T05:47:04.226Z,3.80
2023-01-30T05:49:32.143Z,4.53
2023-01-30T05:52:00.116Z,4.00
2023-01-30T05:54:28.135Z,4.33
2023-01-30T05:56:57.532Z,3.53
2023-01-30T05:59:25.502Z,4.10
2023-01-30T06:01:53.481Z,3.23
2023-01-30T06:04:21.444Z,4.57
2023-01-30T06:06:50.510Z,4.53
2023-01-30T06:09:18.556Z,3.80
2023-01-30T06:11:46.479Z,3.80
2023-01-30T06:14:15.840Z,3.90
2023-01-30T06:16:43.861Z,4.07
2023-01-30T06:19:11.989Z,3.50
2023-01-30T06:21:39.932Z,4.07
2023-01-30T06:24:09.313Z,4.90
2023-01-30T06:26:37.269Z,3.73
2023-01-30T06:29:05.349Z,3.80
2023-01-30T06:31:34.851Z,3.93
2023-01-30T06:34:02.848Z,4.50
2023-01-30T06:36:30.884Z,4.20
2023-01-30T06:38:58.891Z,4.00
2023-01-30T06:41:26.840Z,3.90
2023-01-30T06:43:55.676Z,3.67
2023-01-30T06:46:23.739Z,4.23
2023-01-30T06:48:53.140Z,4.50
2023-01-30T06:51:21.068Z,4.40
2023-01-30T06:53:50.697Z,4.33
2023-01-30T06:56:19.949Z,3.90
2023-01-30T06:58:47.885Z,4.60
2023-01-30T07:01:15.942Z,4.13
2023-01-30T07:03:44.008Z,4.03
2023-01-30T07:06:13.367Z,4.80
2023-01-30T07:08:42.096Z,4.17
2023-01-30T07:11:10.084Z,4.50
2023-01-30T07:13:38.073Z,4.43
2023-01-30T07:16:06.229Z,4.23
2023-01-30T07:18:34.170Z,3.50
2023-01-30T07:21:02.195Z,4.07
2023-01-30T07:23:31.566Z,3.97
2023-01-30T07:25:59.532Z,4.80
2023-01-30T07:28:27.653Z,4.43
2023-01-30T07:30:55.730Z,4.03
2023-01-30T07:33:23.700Z,4.43
2023-01-30T07:35:51.665Z,4.67
2023-01-30T07:38:19.633Z,4.77
2023-01-30T07:40:49.039Z,4.30
2023-01-30T07:43:17.078Z,5.30
2023-01-30T07:45:46.093Z,4.80
2023-01-30T07:48:14.969Z,4.87
2023-01-30T07:50:43.337Z,4.87
2023-01-30T07:53:12.421Z,4.50
2023-01-30T07:55:40.445Z,4.80
2023-01-30T07:58:12.197Z,5.30
2023-01-30T08:00:40.184Z,5.73
2023-01-30T08:03:09.950Z,4.93
2023-01-30T08:05:37.965Z,4.90
2023-01-30T08:08:06.082Z,5.33
2023-01-30T08:10:34.067Z,4.60
2023-01-30T08:13:02.061Z,5.03
2023-01-30T08:15:33.644Z,5.00
2023-01-30T08:18:01.658Z,4.97
2023-01-30T08:20:29.645Z,5.43
2023-01-30T08:22:57.625Z,5.53
2023-01-30T08:25:25.621Z,4.87
2023-01-30T08:27:54.212Z,5.57
2023-01-30T08:30:22.476Z,5.07
2023-01-30T08:32:51.953Z,4.43
2023-01-30T08:35:19.975Z,4.60
2023-01-30T08:37:47.947Z,4.37
2023-01-30T08:40:16.722Z,4.50
2023-01-30T08:42:45.341Z,5.30
2023-01-30T08:45:13.355Z,5.10
2023-01-30T08:47:41.303Z,4.80
2023-01-30T08:50:11.561Z,5.20
2023-01-30T08:52:39.582Z,5.33
2023-01-30T08:55:07.827Z,5.80
2023-01-30T08:57:35.799Z,4.70
2023-01-30T09:00:04.151Z,5.07
2023-01-30T09:02:32.481Z,5.67
2023-01-30T09:05:00.449Z,5.27
2023-01-30T09:07:29.873Z,5.53
2023-01-30T09:09:57.808Z,5.30
2023-01-30T09:12:25.803Z,6.00
2023-01-30T09:14:55.792Z,5.50
2023-01-30T09:17:23.752Z,4.97
2023-01-30T09:19:51.791Z,5.57
2023-01-30T09:22:19.736Z,5.13
2023-01-30T09:24:49.086Z,5.43
2023-01-30T09:27:17.049Z,5.80
2023-01-30T09:29:45.527Z,5.70
2023-01-30T09:32:13.580Z,4.70
2023-01-30T09:34:41.557Z,5.37
2023-01-30T09:37:09.545Z,5.90
2023-01-30T09:39:37.522Z,5.07
2023-01-30T09:42:13.504Z,5.93
2023-01-30T09:44:50.591Z,6.33
2023-01-30T09:47:22.522Z,6.47
2023-01-30T09:49:54.432Z,6.17
2023-01-30T09:52:27.478Z,6.53
2023-01-30T09:54:59.863Z,6.30
2023-01-30T09:57:29.455Z,7.03
2023-01-30T09:59:59.081Z,6.57
2023-01-30T10:02:42.594Z,5.97
2023-01-30T10:05:10.769Z,5.77
2023-01-30T10:07:44.730Z,5.60
2023-01-30T10:10:16.730Z,6.63
2023-01-30T10:12:52.487Z,6.00
2023-01-30T10:15:50.777Z,6.63
2023-01-30T10:18:36.519Z,5.97
2023-01-30T10:21:11.220Z,7.17
2023-01-30T10:23:54.556Z,7.00
2023-01-30T10:26:24.956Z,5.73
2023-01-30T10:29:06.591Z,6.80
2023-01-30T10:31:37.780Z,6.43
2023-01-30T10:34:07.906Z,7.13
2023-01-30T10:36:41.023Z,6.17
2023-01-30T10:39:13.935Z,7.00
2023-01-30T10:41:46.701Z,6.87
2023-01-30T10:44:18.675Z,6.23
2023-01-30T10:47:00.573Z,6.10
2023-01-30T10:49:32.925Z,6.53
2023-01-30T10:52:03.879Z,6.87
2023-01-30T10:54:36.609Z,6.00
2023-01-30T10:57:10.340Z,6.80
2023-01-30T10:59:48.321Z,5.93
2023-01-30T11:02:26.244Z,7.00
2023-01-30T11:04:58.672Z,6.20
2023-01-30T11:07:26.747Z,6.63
2023-01-30T11:09:54.779Z,5.70
2023-01-30T11:12:23.201Z,5.90
2023-01-30T11:14:53.455Z,6.43
2023-01-30T11:17:22.524Z,6.20
2023-01-30T11:19:56.810Z,5.07
2023-01-30T11:22:26.063Z,6.60
2023-01-30T11:25:02.302Z,6.07
2023-01-30T11:27:31.090Z,6.10
2023-01-30T11:30:07.029Z,6.87
2023-01-30T11:32:35.085Z,6.33
2023-01-30T11:35:05.245Z,6.40
2023-01-30T11:37:34.483Z,5.50
2023-01-30T11:40:09.021Z,7.90
2023-01-30T11:42:37.609Z,6.53
2023-01-30T11:45:17.704Z,7.03
2023-01-30T11:47:57.289Z,7.27
2023-01-30T11:50:30.823Z,6.63
2023-01-30T11:53:03.349Z,6.30
2023-01-30T11:55:35.106Z,6.53
2023-01-30T11:58:04.493Z,7.23
2023-01-30T12:00:41.207Z,6.40
2023-01-30T12:03:12.759Z,5.90
2023-01-30T12:05:43.005Z,7.07
2023-01-30T12:08:15.007Z,7.03
2023-01-30T12:10:44.114Z,6.93
2023-01-30T12:13:18.231Z,6.70
2023-01-30T12:15:50.607Z,6.47
2023-01-30T12:18:22.196Z,6.37
2023-01-30T12:20:52.503Z,5.80
2023-01-30T12:23:25.266Z,6.20
2023-01-30T12:25:57.588Z,5.43
2023-01-30T12:28:30.824Z,6.40
2023-01-30T12:31:03.953Z,6.87
2023-01-30T12:33:34.995Z,6.40
2023-01-30T12:36:09.680Z,6.70
2023-01-30T12:38:50.725Z,6.97
2023-01-30T12:41:25.973Z,6.07
2023-01-30T12:44:06.264Z,5.77
2023-01-30T12:46:45.868Z,5.97
2023-01-30T12:49:28.420Z,6.17
2023-01-30T12:52:05.693Z,6.33
2023-01-30T12:54:41.603Z,5.57
2023-01-30T12:57:16.027Z,6.00
2023-01-30T12:59:50.701Z,5.70
2023-01-30T13:02:31.846Z,6.40
2023-01-30T13:05:06.478Z,7.30
2023-01-30T13:07:39.384Z,7.50
2023-01-30T13:10:11.102Z,6.67
2023-01-30T13:12:42.177Z,6.20
2023-01-30T13:15:15.781Z,6.03
2023-01-30T13:17:50.480Z,7.73
2023-01-30T13:20:23.945Z,7.00
2023-01-30T13:22:57.130Z,6.40
2023-01-30T13:25:28.908Z,6.63
2023-01-30T13:27:57.653Z,6.53
2023-01-30T13:30:27.925Z,6.50
2023-01-30T13:32:59.034Z,6.10
2023-01-30T13:35:30.043Z,6.47
2023-01-30T13:37:59.006Z,6.50
2023-01-30T13:40:28.886Z,6.37
2023-01-30T13:42:59.671Z,6.73
2023-01-30T13:45:31.140Z,5.93
2023-01-30T13:48:14.703Z,6.00
2023-01-30T13:50:49.986Z,6.57
2023-01-30T13:53:21.112Z,6.03
2023-01-30T13:55:51.815Z,7.07
2023-01-30T13:58:31.586Z,6.47
2023-01-30T14:00:59.668Z,6.47
2023-01-30T14:03:31.797Z,6.63
2023-01-30T14:06:11.987Z,7.27
2023-01-30T14:08:50.585Z,6.97
2023-01-30T14:11:34.086Z,6.73
2023-01-30T14:14:04.147Z,6.23
2023-01-30T14:16:42.255Z,6.97
2023-01-30T14:19:43.311Z,6.70
2023-01-30T14:22:35.752Z,5.90
2023-01-30T14:25:21.148Z,6.60
2023-01-30T14:27:53.040Z,6.77
2023-01-30T14:30:37.802Z,6.43
2023-01-30T14:33:06.106Z,6.67
2023-01-30T14:35:34.389Z,7.37
2023-01-30T14:38:10.136Z,6.77
2023-01-30T14:40:38.932Z,7.40
2023-01-30T14:43:25.364Z,7.03
2023-01-30T14:45:56.386Z,7.13
2023-01-30T14:48:28.998Z,5.93
2023-01-30T14:51:15.478Z,7.00
2023-01-30T14:53:49.049Z,7.90
2023-01-30T14:56:17.238Z,6.90
2023-01-30T14:58:52.387Z,7.80
2023-01-30T15:01:21.858Z,7.73
2023-01-30T15:03:50.372Z,7.30
2023-01-30T15:06:19.898Z,6.57
2023-01-30T15:08:48.127Z,7.20
2023-01-30T15:11:19.298Z,7.00
2023-01-30T15:13:57.111Z,6.97
2023-01-30T15:16:38.776Z,7.73
2023-01-30T15:19:15.503Z,7.60
2023-01-30T15:21:52.857Z,6.87
2023-01-30T15:24:26.540Z,7.67
2023-01-30T15:26:59.765Z,7.03
2023-01-30T15:29:41.539Z,7.10
2023-01-30T15:32:19.253Z,7.27
2023-01-30T15:34:52.386Z,6.83
2023-01-30T15:37:30.962Z,7.30
2023-01-30T15:40:13.706Z,6.47
2023-01-30T15:42:44.667Z,6.87
2023-01-30T15:45:14.227Z,8.90
2023-01-30T15:47:55.426Z,7.70
2023-01-30T15:50:23.490Z,7.60
2023-01-30T15:52:53.256Z,6.47
2023-01-30T15:55:24.122Z,6.70
2023-01-30T15:57:54.180Z,7.80
2023-01-30T16:00:26.706Z,7.53
2023-01-30T16:02:56.644Z,7.03
2023-01-30T16:05:25.632Z,7.13
2023-01-30T16:07:54.729Z,6.80
2023-01-30T16:10:24.123Z,7.07
2023-01-30T16:12:54.729Z,7.67
2023-01-30T16:15:26.696Z,7.23
2023-01-30T16:18:02.699Z,7.03
2023-01-30T16:20:33.582Z,6.10
2023-01-30T16:23:01.546Z,6.57
2023-01-30T16:25:34.597Z,11.93
2023-01-30T16:28:02.643Z,7.90
2023-01-30T16:30:31.361Z,7.37
2023-01-30T16:33:09.331Z,8.33
2023-01-30T16:35:44.349Z,7.83
2023-01-30T16:38:36.757Z,7.20
2023-01-30T16:41:04.940Z,7.10
2023-01-30T16:43:33.522Z,6.40
2023-01-30T16:46:22.325Z,8.27
2023-01-30T16:48:52.134Z,6.80
2023-01-30T16:51:21.687Z,6.93
2023-01-30T16:53:52.778Z,7.73
2023-01-30T16:56:21.716Z,7.60
2023-01-30T16:58:55.180Z,7.00
2023-01-30T17:01:24.332Z,8.27
2023-01-30T17:03:59.098Z,8.37
2023-01-30T17:06:30.517Z,8.27
2023-01-30T17:09:02.376Z,8.53
2023-01-30T17:11:32.200Z,8.23
2023-01-30T17:14:14.943Z,28.17
2023-01-30T17:16:43.280Z,10.20
2023-01-30T17:19:12.707Z,9.10
2023-01-30T17:21:44.563Z,8.83
2023-01-30T17:24:14.720Z,8.63
2023-01-30T17:26:43.075Z,9.07
2023-01-30T17:29:23.687Z,8.70
2023-01-30T17:32:01.224Z,8.20
2023-01-30T17:34:30.711Z,7.40
2023-01-30T17:36:58.724Z,7.27
2023-01-30T17:39:27.229Z,7.90
2023-01-30T17:41:55.229Z,6.33
2023-01-30T17:44:23.168Z,6.20
2023-01-30T17:46:51.136Z,7.87
2023-01-30T17:49:20.209Z,6.20
2023-01-30T17:51:50.139Z,6.03
2023-01-30T17:54:18.406Z,6.97
2023-01-30T17:56:47.558Z,8.30
2023-01-30T17:59:16.356Z,7.33
2023-01-30T18:01:44.767Z,8.60
2023-01-30T18:04:12.743Z,9.67
2023-01-30T18:06:41.472Z,8.70
2023-01-30T18:09:13.653Z,11.03
2023-01-30T18:11:41.640Z,12.30
2023-01-30T18:14:12.143Z,11.07
2023-01-30T18:16:40.224Z,11.43
2023-01-30T18:19:09.079Z,10.77
2023-01-30T18:21:40.164Z,10.13
2023-01-30T18:24:08.775Z,9.47
2023-01-30T18:26:38.610Z,9.07
2023-01-30T18:29:06.602Z,10.00
2023-01-30T18:31:34.677Z,9.50
2023-01-30T18:34:02.837Z,10.63
2023-01-30T18:36:30.827Z,9.63
2023-01-30T18:38:58.805Z,8.70
2023-01-30T18:41:27.094Z,9.57
2023-01-30T18:43:57.134Z,8.30
2023-01-30T18:46:25.596Z,8.63
2023-01-30T18:48:54.034Z,9.47
2023-01-30T18:51:22.897Z,9.00
2023-01-30T18:53:52.007Z,9.83
2023-01-30T18:56:21.355Z,8.50
2023-01-30T18:58:49.863Z,9.33
2023-01-30T19:01:21.061Z,8.57
2023-01-30T19:03:49.438Z,8.67
2023-01-30T19:06:18.492Z,9.77
2023-01-30T19:08:46.503Z,9.97
2023-01-30T19:11:33.150Z,9.03
2023-01-30T19:14:01.640Z,8.50
2023-01-30T19:16:31.700Z,10.37
2023-01-30T19:18:59.631Z,9.93
2023-01-30T19:21:27.905Z,8.97
2023-01-30T19:23:56.559Z,9.77
2023-01-30T19:26:26.003Z,9.17
2023-01-30T19:28:53.980Z,8.73
2023-01-30T19:31:23.075Z,8.67
2023-01-30T19:33:56.963Z,10.17
2023-01-30T19:36:25.760Z,8.40
2023-01-30T19:38:53.892Z,8.27
2023-01-30T19:41:23.167Z,10.50
2023-01-30T19:43:51.348Z,8.90
2023-01-30T19:46:19.393Z,8.97
2023-01-30T19:48:48.347Z,9.20
2023-01-30T19:51:20.521Z,8.97
2023-01-30T19:53:51.262Z,8.43
2023-01-30T19:56:22.350Z,8.67
2023-01-30T19:58:51.709Z,8.73
2023-01-30T20:01:20.459Z,9.40
2023-01-30T20:03:48.567Z,9.63
2023-01-30T20:06:18.910Z,9.80
2023-01-30T20:08:48.412Z,8.50
2023-01-30T20:11:17.641Z,8.70
2023-01-30T20:13:46.900Z,8.73
2023-01-30T20:16:18.621Z,9.00
2023-01-30T20:18:48.466Z,8.33
2023-01-30T20:21:18.551Z,9.37
2023-01-30T20:23:46.733Z,8.67
2023-01-30T20:26:15.859Z,8.33
2023-01-30T20:28:43.883Z,8.73
2023-01-30T20:31:13.119Z,8.10
2023-01-30T20:33:41.415Z,8.90
2023-01-30T20:36:10.204Z,7.80
2023-01-30T20:38:40.438Z,8.60
2023-01-30T20:41:09.897Z,8.80
2023-01-30T20:43:38.863Z,8.03
2023-01-30T20:46:07.478Z,7.50
2023-01-30T20:48:35.455Z,7.77
2023-01-30T20:51:04.325Z,8.10
2023-01-30T20:53:32.432Z,6.70
2023-01-30T20:56:02.581Z,7.97
2023-01-30T20:58:30.786Z,8.23
2023-01-30T21:01:07.244Z,7.57
2023-01-30T21:03:35.266Z,7.10
2023-01-30T21:06:03.471Z,8.63
2023-01-30T21:08:31.720Z,7.43
2023-01-30T21:11:06.010Z,8.23
2023-01-30T21:13:34.025Z,7.40
2023-01-30T21:16:03.247Z,7.80
2023-01-30T21:18:32.547Z,7.67
2023-01-30T21:21:01.191Z,23.03
2023-01-30T21:23:29.493Z,10.90
2023-01-30T21:25:57.845Z,7.63
2023-01-30T21:28:29.839Z,6.83
2023-01-30T21:30:57.912Z,7.60
2023-01-30T21:33:25.889Z,7.13
2023-01-30T21:35:53.819Z,7.30
2023-01-30T21:38:39.403Z,7.07
2023-01-30T21:41:24.834Z,6.77
2023-01-30T21:43:54.251Z,6.90
2023-01-30T21:46:22.296Z,7.27
2023-01-30T21:48:50.268Z,7.47
2023-01-30T21:51:18.218Z,7.37
2023-01-30T21:53:46.424Z,6.90
2023-01-30T21:56:14.375Z,7.73
2023-01-30T21:58:42.321Z,8.03
2023-01-30T22:01:11.815Z,7.00
2023-01-30T22:03:40.084Z,7.13
2023-01-30T22:06:08.295Z,7.30
2023-01-30T22:08:36.501Z,6.63
2023-01-30T22:11:05.126Z,6.97
2023-01-30T22:13:33.285Z,6.93
2023-01-30T22:16:04.726Z,7.67
2023-01-30T22:18:34.678Z,7.50
2023-01-30T22:21:03.464Z,7.53
2023-01-30T22:23:35.504Z,7.17
2023-01-30T22:26:04.198Z,7.30
2023-01-30T22:28:32.759Z,6.93
2023-01-30T22:31:04.984Z,7.03
2023-01-30T22:33:34.728Z,6.53
2023-01-30T22:36:03.329Z,6.67
2023-01-30T22:38:31.371Z,7.03
2023-01-30T22:41:03.270Z,6.50
2023-01-30T22:43:32.098Z,6.20
2023-01-30T22:46:01.024Z,7.83
2023-01-30T22:48:29.223Z,6.47
2023-01-30T22:51:02.465Z,6.97
2023-01-30T22:53:33.878Z,8.37
2023-01-30T22:56:03.259Z,7.07
2023-01-30T22:58:31.407Z,6.80
2023-01-30T23:01:05.142Z,7.77
2023-01-30T23:03:33.193Z,7.43
2023-01-30T23:06:03.192Z,7.70
2023-01-30T23:08:31.300Z,6.80
2023-01-30T23:10:59.486Z,7.13
2023-01-30T23:13:27.400Z,7.43
2023-01-30T23:15:55.413Z,6.97
2023-01-30T23:18:40.768Z,7.20
2023-01-30T23:21:13.309Z,7.33
2023-01-30T23:23:45.248Z,7.63
2023-01-30T23:26:13.922Z,6.70
2023-01-30T23:28:42.190Z,6.43
2023-01-30T23:31:14.265Z,6.67
2023-01-30T23:33:42.409Z,7.37
2023-01-30T23:36:11.419Z,6.77
2023-01-30T23:38:40.912Z,6.77
2023-01-30T23:41:10.473Z,6.03
2023-01-30T23:43:39.130Z,6.60
2023-01-30T23:46:11.142Z,7.17
2023-01-30T23:48:39.116Z,6.93
2023-01-30T23:51:07.428Z,6.50
2023-01-30T23:53:36.286Z,6.67
2023-01-30T23:56:07.438Z,7.20
2023-01-30T23:58:35.455Z,6.13
